Time;durP1;ratioP1;P1;durP2;ratioP2;P2;SDS_P1;SDS_P2;PMS_P1;PMS_P2;Temp;Humidity;BMP_temperature;BMP_pressure;BME280_temperature;BME280_humidity;BME280_pressure;Samples;Min_cycle;Max_cycle;Signal;HPM_P1;HPM_P2
2023/05/12 00:01:38;;;;;;;25.77;10.60;;;;;;;9.58;58.96;101730.94;5073289;28;20051;-71
2023/05/12 00:04:03;;;;;;;21.95;10.38;;;;;;;9.48;59.18;101722.47;5076964;27;20199;-77
2023/05/12 00:06:30;;;;;;;20.65;9.98;;;;;;;9.56;59.18;101727.50;5073512;28;20092;-76
2023/05/12 00:08:55;;;;;;;30.90;10.35;;;;;;;9.46;59.43;101724.25;5081781;28;20042;-76
2023/05/12 00:11:21;;;;;;;20.30;9.20;;;;;;;9.42;60.01;101729.59;5080577;28;20039;-77
2023/05/12 00:13:47;;;;;;;21.25;8.88;;;;;;;9.73;58.72;101730.63;5064156;28;20043;-76
2023/05/12 00:16:14;;;;;;;20.58;9.40;;;;;;;9.68;58.97;101726.38;5086933;28;20114;-79
2023/05/12 00:18:39;;;;;;;17.92;10.02;;;;;;;9.61;59.20;101725.69;5085647;27;20507;-78
2023/05/12 00:21:07;;;;;;;19.65;9.65;;;;;;;9.84;58.33;101726.94;5069268;28;20027;-78
2023/05/12 00:23:33;;;;;;;20.98;9.38;;;;;;;9.88;58.15;101733.78;5080844;27;20134;-78
2023/05/12 00:25:58;;;;;;;21.88;9.95;;;;;;;9.80;58.67;101728.75;5067665;28;20032;-78
2023/05/12 00:28:23;;;;;;;28.60;11.30;;;;;;;9.68;59.27;101721.16;5065191;28;20118;-78
2023/05/12 00:30:49;;;;;;;23.58;9.77;;;;;;;9.79;58.90;101733.13;5081561;28;20109;-77
2023/05/12 00:33:16;;;;;;;25.02;10.88;;;;;;;9.93;58.48;101729.34;5064895;28;20066;-78
2023/05/12 00:35:44;;;;;;;22.00;9.57;;;;;;;10.00;58.64;101720.44;5092702;27;20023;-77
2023/05/12 00:38:11;;;;;;;27.88;10.07;;;;;;;9.92;58.44;101731.09;5083231;28;20032;-76
2023/05/12 00:40:36;;;;;;;20.02;9.90;;;;;;;10.02;58.31;101726.50;5080730;28;20031;-76
2023/05/12 00:43:02;;;;;;;20.40;10.07;;;;;;;10.06;58.16;101727.25;5073946;28;20309;-72
2023/05/12 00:45:28;;;;;;;22.23;10.50;;;;;;;9.96;58.44;101729.25;5071636;28;20066;-73
2023/05/12 00:47:54;;;;;;;24.10;10.32;;;;;;;9.97;58.27;101728.38;5078528;28;20143;-72
2023/05/12 00:50:20;;;;;;;27.77;11.18;;;;;;;9.98;58.65;101730.91;5089517;27;20536;-72
2023/05/12 00:52:47;;;;;;;27.15;10.75;;;;;;;10.08;58.25;101728.09;5076131;28;20040;-72
2023/05/12 00:55:13;;;;;;;25.15;10.70;;;;;;;10.05;57.87;101729.03;5081520;28;20075;-72
2023/05/12 00:57:39;;;;;;;21.88;10.02;;;;;;;9.91;58.45;101731.13;5070631;28;20326;-72
2023/05/12 01:00:06;;;;;;;26.88;10.60;;;;;;;10.01;58.37;101730.88;5094723;27;20020;-72
2023/05/12 01:02:32;;;;;;;24.17;10.18;;;;;;;10.05;58.16;101726.41;5069291;28;20039;-72
2023/05/12 01:04:58;;;;;;;27.02;10.95;;;;;;;10.09;58.32;101733.28;5079685;28;20604;-73
2023/05/12 01:07:24;;;;;;;23.30;10.90;;;;;;;9.97;58.28;101723.16;5074372;28;20032;-77
2023/05/12 01:09:57;;;;;;;23.20;10.25;;;;;;;10.03;58.10;101717.75;5073413;28;20055;-76
2023/05/12 01:12:24;;;;;;;23.75;11.27;;;;;;;9.92;58.57;101727.59;5073581;28;20056;-75
2023/05/12 01:14:52;;;;;;;27.45;11.70;;;;;;;9.94;58.28;101729.28;5057475;28;20034;-74
2023/05/12 01:17:21;;;;;;;24.95;11.50;;;;;;;9.72;58.57;101734.13;5080297;28;20341;-75
2023/05/12 01:19:50;;;;;;;20.52;11.35;;;;;;;9.85;58.84;101733.88;5054540;28;20052;-75
2023/05/12 01:22:17;;;;;;;29.45;12.25;;;;;;;9.75;59.02;101725.38;5079870;28;20156;-74
2023/05/12 01:24:49;;;;;;;23.33;11.82;;;;;;;9.82;58.55;101718.28;5061261;28;20210;-74
2023/05/12 01:27:16;;;;;;;26.67;11.60;;;;;;;9.69;58.00;101738.56;5063587;28;20082;-76
2023/05/12 01:29:45;;;;;;;20.77;11.63;;;;;;;9.62;58.69;101731.75;5063866;28;20040;-78
2023/05/12 01:32:12;;;;;;;22.70;11.90;;;;;;;9.62;58.40;101727.38;5066106;28;20051;-78
2023/05/12 01:34:38;;;;;;;25.90;11.60;;;;;;;9.61;58.48;101728.28;5080081;28;20131;-79
2023/05/12 01:37:04;;;;;;;27.42;12.25;;;;;;;9.58;58.67;101737.03;5082519;28;20270;-80
2023/05/12 01:39:30;;;;;;;24.90;12.10;;;;;;;9.51;58.24;101742.44;5059809;28;20449;-76
2023/05/12 01:41:56;;;;;;;21.63;11.70;;;;;;;9.39;58.71;101746.16;5087976;27;20055;-77
2023/05/12 01:44:22;;;;;;;21.95;11.75;;;;;;;9.39;58.67;101739.19;5072657;28;20179;-79
2023/05/12 01:46:48;;;;;;;21.23;11.40;;;;;;;9.40;58.42;101746.09;5077979;28;20031;-78
2023/05/12 01:49:14;;;;;;;22.85;10.77;;;;;;;9.40;58.53;101743.50;5082947;28;20100;-79
2023/05/12 01:51:39;;;;;;;24.65;12.20;;;;;;;9.39;58.38;101749.63;5073876;27;20032;-78
2023/05/12 01:54:05;;;;;;;24.75;12.50;;;;;;;9.38;58.71;101745.28;5076781;28;20074;-79
2023/05/12 01:56:33;;;;;;;21.33;9.85;;;;;;;9.35;58.57;101747.97;5081640;28;20505;-79
2023/05/12 01:58:59;;;;;;;17.77;10.20;;;;;;;9.35;58.60;101747.97;5093565;27;20066;-78
2023/05/12 02:01:27;;;;;;;29.25;13.32;;;;;;;9.26;58.59;101756.00;5061805;28;20058;-80
2023/05/12 02:03:54;;;;;;;22.13;11.38;;;;;;;9.27;58.64;101756.84;5061442;28;20162;-78
2023/05/12 02:06:21;;;;;;;27.83;12.25;;;;;;;9.26;58.27;101750.78;5068534;28;20057;-76
2023/05/12 02:08:47;;;;;;;33.17;13.68;;;;;;;9.18;58.37;101757.88;5084244;28;20928;-77
2023/05/12 02:11:14;;;;;;;27.65;13.98;;;;;;;9.10;58.57;101762.41;5102153;27;20032;-78
2023/05/12 02:13:43;;;;;;;23.42;11.63;;;;;;;9.13;58.68;101760.59;5064819;28;20046;-77
2023/05/12 02:16:09;;;;;;;25.60;11.75;;;;;;;9.16;58.64;101760.53;5082839;28;20024;-78
2023/05/12 02:18:35;;;;;;;28.17;12.88;;;;;;;9.15;58.45;101760.56;5080640;27;20412;-76
2023/05/12 02:21:03;;;;;;;28.17;12.25;;;;;;;9.19;58.57;101764.84;5066570;28;20027;-76
2023/05/12 02:23:29;;;;;;;20.75;10.98;;;;;;;9.14;58.67;101769.25;5086087;27;20089;-76
2023/05/12 02:25:54;;;;;;;29.55;13.60;;;;;;;9.23;58.44;101776.94;5083572;28;20044;-78
2023/05/12 02:28:20;;;;;;;23.98;11.38;;;;;;;9.14;58.38;101771.88;5094805;28;20032;-76
2023/05/12 02:30:49;;;;;;;21.48;11.75;;;;;;;9.14;58.14;101772.75;5092867;28;20032;-77
2023/05/12 02:33:16;;;;;;;20.52;11.65;;;;;;;9.13;58.37;101775.38;5095167;27;20032;-77
2023/05/12 02:35:43;;;;;;;25.83;12.40;;;;;;;9.11;58.55;101771.94;5061175;28;20122;-78
2023/05/12 02:38:09;;;;;;;25.15;14.07;;;;;;;9.02;58.48;101779.94;5065345;28;20050;-75
2023/05/12 02:40:34;;;;;;;31.23;14.45;;;;;;;9.03;58.75;101768.59;5058515;28;20032;-77
2023/05/12 02:43:00;;;;;;;26.98;14.98;;;;;;;9.08;58.68;101774.63;5093098;27;20040;-74
2023/05/12 02:45:26;;;;;;;30.98;14.77;;;;;;;9.14;58.52;101764.03;5079221;28;20035;-79
2023/05/12 02:47:52;;;;;;;31.38;17.73;;;;;;;9.06;58.43;101774.63;5068090;28;20048;-77
2023/05/12 02:50:19;;;;;;;31.77;18.08;;;;;;;8.93;59.04;101787.03;5085796;28;20208;-74
2023/05/12 02:52:44;;;;;;;34.05;17.92;;;;;;;9.03;58.77;101781.66;5054442;27;20050;-75
2023/05/12 02:55:10;;;;;;;36.45;20.85;;;;;;;9.06;58.73;101774.63;5084232;27;20036;-74
2023/05/12 02:57:35;;;;;;;33.03;17.95;;;;;;;9.05;58.59;101770.28;5072282;28;20051;-75
2023/05/12 03:00:06;;;;;;;37.45;18.40;;;;;;;9.10;58.80;101771.09;5079782;28;20859;-78
2023/05/12 03:02:35;;;;;;;31.75;18.08;;;;;;;9.08;58.64;101767.66;5058888;28;20053;-77
2023/05/12 03:05:02;;;;;;;29.35;14.93;;;;;;;9.08;58.68;101769.41;5096906;27;20047;-77
2023/05/12 03:07:28;;;;;;;37.72;18.15;;;;;;;9.07;58.45;101775.50;5079696;28;20658;-77
2023/05/12 03:09:54;;;;;;;38.63;19.38;;;;;;;9.18;59.00;101773.53;5076497;27;20027;-73
2023/05/12 03:12:20;;;;;;;33.20;17.25;;;;;;;9.26;58.34;101776.84;5056509;28;20082;-74
2023/05/12 03:14:45;;;;;;;37.72;18.02;;;;;;;9.22;58.51;101780.41;5075363;28;20837;-73
2023/05/12 03:17:11;;;;;;;35.15;18.52;;;;;;;9.18;58.78;101778.75;5076603;28;20039;-73
2023/05/12 03:19:36;;;;;;;36.42;18.10;;;;;;;9.29;58.50;101771.56;5074753;28;20036;-73
2023/05/12 03:22:02;;;;;;;38.08;17.98;;;;;;;9.29;58.64;101776.78;5078983;27;20031;-73
2023/05/12 03:24:28;;;;;;;31.92;17.90;;;;;;;9.30;58.50;101782.88;5057728;28;20046;-73
2023/05/12 03:26:54;;;;;;;32.35;17.67;;;;;;;9.41;58.41;101783.53;5081309;28;20047;-74
2023/05/12 03:29:20;;;;;;;36.63;18.92;;;;;;;9.41;58.17;101788.75;5077494;27;20043;-76
2023/05/12 03:31:46;;;;;;;35.40;17.98;;;;;;;9.45;58.29;101786.91;5091426;27;20032;-75
2023/05/12 03:34:12;;;;;;;40.20;19.10;;;;;;;9.41;58.29;101780.91;5078515;28;20038;-74
2023/05/12 03:36:39;;;;;;;33.97;19.30;;;;;;;9.35;58.49;101794.94;5056236;28;20401;-74
2023/05/12 03:39:07;;;;;;;42.30;20.25;;;;;;;9.39;58.66;101788.75;5066088;28;20040;-77
2023/05/12 03:41:35;;;;;;;34.85;18.55;;;;;;;9.34;58.27;101795.84;5077120;27;20654;-76
2023/05/12 03:44:01;;;;;;;39.08;20.02;;;;;;;9.44;58.48;101790.41;5056518;28;20039;-74
2023/05/12 03:46:26;;;;;;;28.02;17.02;;;;;;;9.45;58.39;101787.75;5077976;28;20035;-73
2023/05/12 03:48:52;;;;;;;35.25;19.95;;;;;;;9.52;58.27;101799.81;5074360;27;20870;-77
2023/05/12 03:51:18;;;;;;;35.90;19.75;;;;;;;9.49;58.06;101788.56;5084843;28;20040;-75
2023/05/12 03:53:46;;;;;;;36.80;19.23;;;;;;;9.50;58.43;101791.16;5075033;28;20252;-77
2023/05/12 03:56:14;;;;;;;36.05;19.48;;;;;;;9.56;58.34;101790.16;5094940;27;20036;-78
2023/05/12 03:58:39;;;;;;;34.35;18.58;;;;;;;9.54;58.21;101786.72;5070398;28;20691;-78
2023/05/12 04:01:05;;;;;;;31.75;17.17;;;;;;;9.60;57.87;101792.66;5078804;28;20027;-79
2023/05/12 04:03:31;;;;;;;36.85;20.52;;;;;;;9.56;57.89;101805.81;5069335;28;20485;-79
2023/05/12 04:05:59;;;;;;;35.03;20.25;;;;;;;9.62;58.12;101799.63;5080066;27;20028;-75
2023/05/12 04:08:24;;;;;;;34.92;20.83;;;;;;;9.59;58.11;101796.19;5077234;28;20031;-76
2023/05/12 04:10:53;;;;;;;39.03;20.98;;;;;;;9.49;58.22;101812.91;5060139;28;20042;-76
2023/05/12 04:13:18;;;;;;;37.72;21.65;;;;;;;9.52;58.32;101809.38;5074794;27;20488;-75
2023/05/12 04:15:43;;;;;;;38.72;21.95;;;;;;;9.62;58.55;101800.47;5075007;28;20062;-76
2023/05/12 04:18:09;;;;;;;37.65;21.20;;;;;;;9.72;58.29;101807.22;5060874;28;20028;-76
2023/05/12 04:20:34;;;;;;;40.03;20.65;;;;;;;9.77;58.35;101810.59;5069967;28;20044;-77
2023/05/12 04:23:00;;;;;;;41.63;21.20;;;;;;;9.84;57.94;101816.56;5071630;28;20050;-76
2023/05/12 04:25:25;;;;;;;39.33;20.50;;;;;;;9.86;57.96;101813.94;5075501;28;20032;-75
2023/05/12 04:27:51;;;;;;;37.10;21.60;;;;;;;9.76;57.95;101811.47;5079477;28;20144;-75
2023/05/12 04:30:17;;;;;;;38.97;21.45;;;;;;;9.76;58.05;101824.53;5074910;28;22878;-75
2023/05/12 04:32:43;;;;;;;41.03;21.52;;;;;;;9.75;58.25;101822.81;5057125;28;20035;-75
2023/05/12 04:35:09;;;;;;;48.60;25.90;;;;;;;9.83;58.12;101820.06;5064862;28;20070;-75
2023/05/12 04:37:37;;;;;;;45.63;23.80;;;;;;;9.79;58.43;101824.50;5063048;28;20037;-75
2023/05/12 04:40:03;;;;;;;35.85;22.05;;;;;;;9.90;58.41;101826.88;5082097;27;20031;-75
2023/05/12 04:42:29;;;;;;;46.38;24.27;;;;;;;9.85;58.09;101833.94;5078322;28;20412;-75
2023/05/12 04:44:55;;;;;;;44.63;24.55;;;;;;;9.82;58.41;101825.34;5063788;28;20028;-75
2023/05/12 04:47:21;;;;;;;44.28;26.50;;;;;;;9.94;57.84;101832.88;5059067;28;20177;-75
2023/05/12 04:49:46;;;;;;;47.00;24.80;;;;;;;9.87;58.30;101841.75;5061910;28;20561;-76
2023/05/12 04:52:13;;;;;;;44.95;25.98;;;;;;;9.96;58.38;101836.31;5062154;28;20234;-75
2023/05/12 04:54:38;;;;;;;45.90;25.35;;;;;;;10.09;58.39;101839.53;5078374;28;20138;-74
2023/05/12 04:57:05;;;;;;;53.38;27.90;;;;;;;10.06;58.30;101856.13;5078085;28;20522;-74
2023/05/12 04:59:30;;;;;;;47.85;26.75;;;;;;;10.07;58.29;101870.03;5076193;27;20031;-74
2023/05/12 05:01:56;;;;;;;53.85;28.63;;;;;;;9.95;58.53;101879.00;5062967;28;20031;-72
2023/05/12 05:04:22;;;;;;;51.20;28.23;;;;;;;10.08;58.34;101867.41;5054542;27;20125;-72
2023/05/12 05:06:47;;;;;;;49.03;27.25;;;;;;;10.12;58.68;101855.13;5074200;28;20050;-72
2023/05/12 05:09:14;;;;;;;59.60;31.00;;;;;;;9.97;58.70;101864.19;5079212;28;20122;-73
2023/05/12 05:11:40;;;;;;;49.42;28.02;;;;;;;10.21;58.32;101876.69;5072872;28;20039;-74
2023/05/12 05:14:05;;;;;;;52.00;28.15;;;;;;;10.13;58.16;101870.78;5054869;28;20032;-75
2023/05/12 05:16:33;;;;;;;52.15;28.15;;;;;;;10.34;58.35;101879.00;5065208;28;20028;-78
2023/05/12 05:18:59;;;;;;;45.58;27.73;;;;;;;10.36;57.97;101887.69;5054673;27;20586;-77
2023/05/12 05:21:27;;;;;;;47.60;26.80;;;;;;;10.37;58.58;101889.38;5098249;27;20043;-78
2023/05/12 05:23:52;;;;;;;45.80;27.38;;;;;;;10.50;58.37;101889.97;5083232;28;20113;-78
2023/05/12 05:26:20;;;;;;;51.40;27.83;;;;;;;10.53;58.02;101889.91;5057372;28;20122;-71
2023/05/12 05:28:46;;;;;;;41.90;25.80;;;;;;;10.66;58.01;101896.56;5062917;28;20278;-72
2023/05/12 05:31:15;;;;;;;48.88;26.30;;;;;;;10.67;57.60;101897.41;5071299;28;20028;-70
2023/05/12 05:33:43;;;;;;;47.15;25.95;;;;;;;10.74;57.93;101902.44;5057725;28;20090;-70
2023/05/12 05:36:09;;;;;;;41.67;26.35;;;;;;;10.89;58.13;101897.78;5072787;28;20800;-70
2023/05/12 05:38:35;;;;;;;44.08;24.73;;;;;;;10.99;57.83;101905.34;5077523;28;20047;-70
2023/05/12 05:41:01;;;;;;;49.90;27.92;;;;;;;11.01;57.43;101903.53;5078550;27;20222;-71
2023/05/12 05:43:28;;;;;;;45.20;25.40;;;;;;;11.03;57.14;101904.38;5074437;27;20443;-70
2023/05/12 05:45:55;;;;;;;50.80;27.02;;;;;;;11.15;56.80;101910.19;5072029;27;20349;-79
2023/05/12 05:48:21;;;;;;;52.05;29.23;;;;;;;11.19;56.85;101906.59;5071642;28;20028;-79
2023/05/12 05:50:47;;;;;;;49.67;27.38;;;;;;;11.19;56.90;101911.81;5089637;27;20085;-79
2023/05/12 05:53:13;;;;;;;45.22;26.25;;;;;;;11.12;56.85;101918.13;5092552;27;20051;-80
2023/05/12 05:55:39;;;;;;;45.72;26.33;;;;;;;11.22;57.14;101915.22;5072502;28;20114;-79
2023/05/12 05:58:05;;;;;;;50.08;27.83;;;;;;;11.33;57.00;101909.72;5089751;27;20130;-77
2023/05/12 06:00:30;;;;;;;49.20;27.02;;;;;;;11.32;56.83;101918.47;5082940;27;20027;-75
2023/05/12 06:02:56;;;;;;;48.35;27.40;;;;;;;11.37;56.78;101921.81;5069808;27;20058;-75
2023/05/12 06:05:22;;;;;;;49.03;27.45;;;;;;;11.31;57.03;101908.91;5067489;28;20128;-77
2023/05/12 06:07:47;;;;;;;44.60;27.13;;;;;;;11.51;56.44;101915.34;5085257;28;20127;-76
2023/05/12 06:10:13;;;;;;;43.65;24.80;;;;;;;11.33;56.78;101920.19;5061805;28;20044;-77
2023/05/12 06:12:42;;;;;;;47.92;27.23;;;;;;;11.54;55.71;101934.44;5059455;28;20086;-75
2023/05/12 06:15:08;;;;;;;41.15;26.08;;;;;;;11.51;56.45;101925.81;5083428;27;20118;-77
2023/05/12 06:17:33;;;;;;;40.38;24.75;;;;;;;11.66;56.01;101928.00;5076177;27;20606;-75
2023/05/12 06:19:59;;;;;;;40.92;24.42;;;;;;;11.76;56.21;101934.72;5081032;27;20351;-74
2023/05/12 06:22:25;;;;;;;43.97;26.02;;;;;;;11.81;56.11;101932.84;5075098;27;20117;-74
2023/05/12 06:24:51;;;;;;;43.17;25.20;;;;;;;11.91;55.57;101938.72;5080291;27;20176;-71
2023/05/12 06:27:16;;;;;;;42.95;24.88;;;;;;;11.88;55.94;101942.25;5076936;27;20869;-69
2023/05/12 06:29:45;;;;;;;42.40;24.77;;;;;;;11.97;56.02;101938.50;5059275;27;20035;-70
2023/05/12 06:32:11;;;;;;;39.40;24.95;;;;;;;12.02;56.07;101939.25;5073154;27;20377;-73
2023/05/12 06:34:36;;;;;;;41.53;24.92;;;;;;;12.05;55.08;101946.16;5074044;27;20394;-71
2023/05/12 06:37:02;;;;;;;43.42;25.48;;;;;;;12.06;55.65;101953.09;5057839;28;20081;-72
2023/05/12 06:39:29;;;;;;;41.65;25.20;;;;;;;12.07;55.57;101952.22;5076150;27;20031;-73
2023/05/12 06:41:54;;;;;;;34.67;24.10;;;;;;;12.13;55.44;101952.00;5081678;27;20416;-74
2023/05/12 06:44:20;;;;;;;38.17;22.23;;;;;;;12.05;55.61;101947.00;5066976;27;20171;-73
2023/05/12 06:46:50;;;;;;;30.33;20.67;;;;;;;12.39;55.00;101955.63;5065964;27;20036;-71
2023/05/12 06:49:16;;;;;;;33.20;22.63;;;;;;;12.44;54.61;101951.09;5077130;27;20035;-73
2023/05/12 06:51:41;;;;;;;32.17;22.45;;;;;;;12.50;54.41;101949.16;5074209;27;20342;-71
2023/05/12 06:54:10;;;;;;;34.05;19.90;;;;;;;12.68;54.79;101947.72;5074343;28;20088;-72
2023/05/12 06:56:35;;;;;;;32.33;20.38;;;;;;;12.74;53.99;101956.34;5076246;28;20486;-71
2023/05/12 06:59:02;;;;;;;28.77;19.85;;;;;;;12.76;53.48;101954.50;5072382;28;20712;-74
2023/05/12 07:01:31;;;;;;;32.38;20.20;;;;;;;12.82;53.97;101964.81;5076102;27;20051;-74
2023/05/12 07:03:58;;;;;;;30.70;19.23;;;;;;;12.95;53.82;101960.88;5094361;27;20037;-73
2023/05/12 07:06:26;;;;;;;32.28;20.23;;;;;;;13.07;54.08;101952.63;5093882;27;20039;-72
2023/05/12 07:08:52;;;;;;;28.73;19.65;;;;;;;13.07;52.79;101954.34;5064158;28;20112;-71
2023/05/12 07:11:21;;;;;;;29.05;20.50;;;;;;;13.15;52.81;101962.00;5073477;27;20043;-71
2023/05/12 07:13:47;;;;;;;31.70;19.05;;;;;;;13.26;52.75;101962.47;5079232;28;20459;-74
2023/05/12 07:16:14;;;;;;;24.63;16.60;;;;;;;13.51;51.94;101970.38;5079544;27;20035;-72
2023/05/12 07:18:40;;;;;;;26.40;17.60;;;;;;;13.57;51.38;101971.97;5079168;27;20035;-71
2023/05/12 07:21:05;;;;;;;21.83;16.45;;;;;;;13.58;49.68;101976.28;5078844;27;20035;-73
2023/05/12 07:23:33;;;;;;;23.98;17.30;;;;;;;13.86;50.12;101966.50;5077337;27;20060;-73
2023/05/12 07:25:59;;;;;;;20.58;15.32;;;;;;;14.05;48.87;101965.81;5082784;28;20032;-73
2023/05/12 07:28:25;;;;;;;22.80;14.98;;;;;;;14.19;47.97;101960.91;5072907;27;20386;-75
2023/05/12 07:30:50;;;;;;;21.63;14.85;;;;;;;14.51;47.93;101964.94;5079833;27;20228;-73
2023/05/12 07:33:16;;;;;;;20.85;14.75;;;;;;;14.80;46.44;101972.63;5072166;28;20043;-74
2023/05/12 07:35:42;;;;;;;19.17;13.40;;;;;;;14.92;46.57;101969.47;5075113;27;20135;-71
2023/05/12 07:38:08;;;;;;;18.13;13.68;;;;;;;15.29;44.81;101968.81;5078035;28;20455;-72
2023/05/12 07:40:34;;;;;;;18.23;13.73;;;;;;;15.70;44.40;101960.88;5078139;27;20031;-71
2023/05/12 07:43:00;;;;;;;20.42;13.40;;;;;;;15.99;42.89;101961.34;5080489;28;20528;-72
2023/05/12 07:45:25;;;;;;;16.02;11.57;;;;;;;16.31;41.53;101964.28;5071806;28;20727;-71
2023/05/12 07:47:51;;;;;;;15.63;12.18;;;;;;;16.65;42.14;101963.56;5074788;28;20130;-72
2023/05/12 07:50:18;;;;;;;11.77;9.98;;;;;;;16.49;41.30;101968.72;5074131;27;20028;-74
2023/05/12 07:52:48;;;;;;;16.60;11.45;;;;;;;16.36;41.43;101957.88;5073604;27;20039;-72
2023/05/12 07:55:14;;;;;;;15.65;10.10;;;;;;;16.48;41.31;101971.44;5060779;28;20344;-70
2023/05/12 07:57:40;;;;;;;10.32;8.40;;;;;;;16.88;40.25;101969.53;5072766;28;20552;-72
2023/05/12 08:00:08;;;;;;;10.27;8.25;;;;;;;17.24;39.10;101967.66;5080001;27;20084;-71
2023/05/12 08:02:39;;;;;;;9.60;7.03;;;;;;;17.69;37.56;101972.47;5070907;27;20921;-72
2023/05/12 08:05:06;;;;;;;15.98;8.52;;;;;;;17.75;37.19;101975.63;5074091;28;20142;-72
2023/05/12 08:07:32;;;;;;;14.88;7.60;;;;;;;18.24;36.79;101982.75;5040605;27;20040;-72
2023/05/12 08:09:57;;;;;;;8.90;7.15;;;;;;;18.97;35.14;101979.56;5061798;28;20763;-72
2023/05/12 08:12:25;;;;;;;9.25;6.80;;;;;;;19.43;33.08;101975.00;5071300;28;20118;-71
2023/05/12 08:15:06;;;;;;;8.55;6.38;;;;;;;19.50;34.27;101973.69;5071007;28;20063;-72
2023/05/12 08:17:33;;;;;;;9.63;6.97;;;;;;;20.33;33.17;101975.69;5060674;28;20032;-72
2023/05/12 08:19:59;;;;;;;10.98;6.47;;;;;;;20.98;30.76;101971.50;5072706;27;20150;-72
2023/05/12 08:22:25;;;;;;;9.10;7.43;;;;;;;21.85;30.48;101980.59;5070468;27;20042;-72
2023/05/12 08:24:51;;;;;;;7.05;5.82;;;;;;;22.90;27.86;101977.38;5072162;28;20026;-72
2023/05/12 08:27:17;;;;;;;6.55;5.45;;;;;;;23.54;26.61;101970.72;5058730;28;20447;-73
2023/05/12 08:29:43;;;;;;;7.28;5.28;;;;;;;25.18;27.01;101983.25;5067551;27;20801;-72
2023/05/12 08:32:08;;;;;;;5.82;5.32;;;;;;;25.99;24.67;101983.38;5069781;27;20036;-73
2023/05/12 08:34:34;;;;;;;5.43;4.93;;;;;;;25.27;24.89;101982.47;5068256;27;20043;-73
2023/05/12 08:37:00;;;;;;;5.45;4.97;;;;;;;23.19;27.16;101995.66;5071311;28;20024;-75
2023/05/12 08:39:29;;;;;;;7.22;5.28;;;;;;;22.57;28.60;101989.56;5071568;28;20035;-73
2023/05/12 08:42:12;;;;;;;6.82;5.80;;;;;;;23.86;28.46;101988.75;5067521;27;20138;-72
2023/05/12 08:44:38;;;;;;;5.20;4.75;;;;;;;25.53;25.73;101988.28;5069993;27;20071;-72
2023/05/12 08:47:04;;;;;;;5.30;4.80;;;;;;;25.55;23.93;101983.63;5071092;27;20050;-74
2023/05/12 08:49:31;;;;;;;8.07;4.65;;;;;;;25.75;24.69;101987.22;5068019;28;20760;-75
2023/05/12 08:52:01;;;;;;;4.70;4.30;;;;;;;26.07;24.41;101987.09;5071047;28;20706;-72
2023/05/12 08:54:28;;;;;;;4.72;3.70;;;;;;;26.60;23.66;101987.75;5068562;27;20051;-72
2023/05/12 08:56:55;;;;;;;5.07;4.50;;;;;;;26.89;22.91;101983.25;5073096;28;20039;-71
2023/05/12 08:59:22;;;;;;;8.15;4.63;;;;;;;27.40;22.82;101985.69;5068221;28;20515;-72
2023/05/12 09:01:49;;;;;;;4.90;4.40;;;;;;;27.56;22.42;101979.69;5072442;28;20048;-73
2023/05/12 09:04:16;;;;;;;7.38;4.28;;;;;;;27.19;22.86;101991.28;5069789;28;20088;-72
2023/05/12 09:06:45;;;;;;;4.78;4.10;;;;;;;26.63;23.42;101987.50;5069632;28;20063;-69
2023/05/12 09:09:12;;;;;;;6.18;4.30;;;;;;;26.38;22.99;101992.38;5070394;27;20053;-71
2023/05/12 09:11:40;;;;;;;4.97;4.00;;;;;;;26.08;23.77;101994.13;5071450;28;20117;-72
2023/05/12 09:14:17;;;;;;;4.50;4.10;;;;;;;26.09;23.99;101995.00;5067877;28;20042;-69
2023/05/12 09:16:47;;;;;;;4.05;3.40;;;;;;;25.72;23.22;101984.84;5074006;28;20039;-70
2023/05/12 09:19:18;;;;;;;4.60;3.20;;;;;;;25.61;23.29;102001.00;5069532;28;20062;-70
2023/05/12 09:21:44;;;;;;;7.18;3.67;;;;;;;24.91;23.94;101995.28;5069412;28;20032;-72
2023/05/12 09:24:09;;;;;;;6.93;3.63;;;;;;;23.79;25.82;102001.69;5032700;28;20043;-73
2023/05/12 09:26:50;;;;;;;7.85;3.38;;;;;;;23.14;26.96;102000.47;5068138;28;20040;-73
2023/05/12 09:29:16;;;;;;;4.05;3.65;;;;;;;24.07;26.96;102007.53;5068653;28;20050;-73
2023/05/12 09:31:52;;;;;;;5.38;3.63;;;;;;;24.18;26.65;102003.00;5075446;28;20864;-72
2023/05/12 09:34:25;;;;;;;5.13;3.55;;;;;;;23.94;25.55;102008.50;5068647;28;20043;-72
2023/05/12 09:37:02;;;;;;;6.15;3.35;;;;;;;23.86;27.32;102008.28;5071508;28;20039;-72
2023/05/12 09:39:28;;;;;;;3.00;2.80;;;;;;;24.33;27.07;102011.63;5068665;28;20089;-73
2023/05/12 09:41:55;;;;;;;3.65;2.90;;;;;;;24.36;26.03;102007.84;5073023;28;20449;-72
2023/05/12 09:44:22;;;;;;;4.28;3.88;;;;;;;24.57;25.59;102005.25;5069361;28;20028;-71
2023/05/12 09:46:48;;;;;;;5.43;3.85;;;;;;;24.36;25.17;102002.50;5072964;28;20035;-71
2023/05/12 09:49:25;;;;;;;3.75;3.45;;;;;;;24.49;26.85;102007.72;5076678;28;20526;-72
2023/05/12 09:51:55;;;;;;;6.93;4.95;;;;;;;25.18;28.00;102010.00;5090139;27;20036;-72
2023/05/12 09:54:25;;;;;;;3.95;3.50;;;;;;;24.88;27.72;102014.25;5072829;28;20075;-71
2023/05/12 09:56:56;;;;;;;4.80;4.40;;;;;;;24.15;28.39;102005.94;5068842;28;20480;-72
2023/05/12 09:59:25;;;;;;;5.97;3.88;;;;;;;23.67;29.03;102006.16;5071058;28;20036;-73
2023/05/12 10:01:53;;;;;;;5.63;4.45;;;;;;;23.55;29.28;101999.13;5068110;28;20833;-73
2023/05/12 10:04:19;;;;;;;6.75;4.10;;;;;;;23.77;30.14;102007.16;5066303;28;20117;-72
2023/05/12 10:06:46;;;;;;;4.47;4.03;;;;;;;23.78;29.92;102014.16;5052762;28;20038;-73
2023/05/12 10:09:21;;;;;;;6.05;4.30;;;;;;;24.22;29.67;102012.47;5070211;28;20039;-72
2023/05/12 10:11:48;;;;;;;5.40;4.03;;;;;;;24.84;28.93;102015.50;5089897;27;20726;-72
2023/05/12 10:14:15;;;;;;;5.00;2.75;;;;;;;25.21;26.08;102020.44;5065532;28;20248;-73
2023/05/12 10:16:44;;;;;;;5.68;4.15;;;;;;;25.74;24.31;102017.69;5065590;28;20080;-72
2023/05/12 10:19:10;;;;;;;8.55;3.75;;;;;;;25.22;26.53;102022.16;5073232;28;20183;-73
2023/05/12 10:21:37;;;;;;;3.60;3.25;;;;;;;25.11;26.55;102019.50;5069962;28;20036;-72
2023/05/12 10:24:03;;;;;;;3.53;3.20;;;;;;;25.40;26.58;102020.56;5067674;28;20048;-73
2023/05/12 10:26:31;;;;;;;3.42;2.83;;;;;;;25.55;25.17;102022.94;5072876;28;20333;-73
2023/05/12 10:28:57;;;;;;;3.33;3.03;;;;;;;25.21;25.16;102020.44;5072936;27;20043;-72
2023/05/12 10:31:24;;;;;;;3.20;2.75;;;;;;;24.60;26.14;102016.56;5073596;27;20724;-71
2023/05/12 10:34:00;;;;;;;4.28;2.65;;;;;;;23.84;26.40;102020.88;5076870;27;20097;-73
2023/05/12 10:36:26;;;;;;;2.92;2.72;;;;;;;24.02;26.42;102021.25;5055471;27;20023;-72
2023/05/12 10:38:53;;;;;;;3.88;3.47;;;;;;;23.82;27.44;102025.47;5069529;27;20040;-74
2023/05/12 10:41:30;;;;;;;4.78;3.08;;;;;;;23.80;27.54;102024.75;5062619;28;20028;-73
2023/05/12 10:43:55;;;;;;;5.30;4.53;;;;;;;23.25;28.70;102027.16;5075442;27;20048;-73
2023/05/12 10:46:23;;;;;;;4.90;3.67;;;;;;;23.13;29.42;102020.09;5070896;28;20392;-72
2023/05/12 10:48:52;;;;;;;3.38;3.05;;;;;;;22.81;30.06;102031.38;5072915;28;20610;-74
2023/05/12 10:51:27;;;;;;;5.60;3.70;;;;;;;23.49;29.73;102028.94;5078500;27;20174;-72
2023/05/12 10:54:05;;;;;;;7.65;4.15;;;;;;;23.54;29.37;102030.31;5073164;28;20586;-72
2023/05/12 10:56:37;;;;;;;4.57;3.33;;;;;;;23.06;29.22;102019.72;5075515;27;20032;-72
2023/05/12 10:59:23;;;;;;;3.88;3.50;;;;;;;22.79;29.00;102025.31;5079939;27;20078;-73
2023/05/12 11:02:14;;;;;;;3.70;3.40;;;;;;;23.08;29.33;102017.78;5073323;28;20429;-73
2023/05/12 11:05:09;;;;;;;4.07;3.33;;;;;;;23.08;29.16;102016.94;5074172;27;20860;-73
2023/05/12 11:07:35;;;;;;;4.97;3.35;;;;;;;23.56;27.58;102023.00;5048464;28;20553;-72
2023/05/12 11:10:03;;;;;;;3.28;3.00;;;;;;;24.19;27.88;102023.44;5074641;27;20028;-72
2023/05/12 11:12:33;;;;;;;4.55;3.08;;;;;;;24.03;27.49;102020.25;5066036;27;20027;-73
2023/05/12 11:15:01;;;;;;;4.00;3.22;;;;;;;23.66;28.07;102020.50;5072731;27;20629;-72
2023/05/12 11:17:27;;;;;;;4.30;2.97;;;;;;;23.77;29.04;102025.00;5068044;28;20829;-73